Time;durP1;ratioP1;P1;durP2;ratioP2;P2;SDS_P1;SDS_P2;PMS_P1;PMS_P2;Temp;Humidity;BMP_temperature;BMP_pressure;BME280_temperature;BME280_humidity;BME280_pressure;Samples;Min_cycle;Max_cycle;Signal;HPM_P1;HPM_P2
2022/05/25 00:04:55;;;;;;;;;;;12.40;13.70;;;;;;10472676;27;84405;-51
2022/05/25 00:09:56;;;;;;;;;;;12.40;19.60;;;;;;10496183;27;84645;-50
2022/05/25 00:14:56;;;;;;;;;;;12.30;30.70;;;;;;10461961;27;84236;-52
2022/05/25 00:20:00;;;;;;;;;;;12.30;34.50;;;;;;10456978;28;85048;-51
2022/05/25 00:25:00;;;;;;;;;;;12.30;42.40;;;;;;10494009;27;84955;-50
2022/05/25 00:30:02;;;;;;;;;;;12.20;47.80;;;;;;10498223;27;84153;-52
2022/05/25 00:35:03;;;;;;;;;;;12.20;61.30;;;;;;10462120;27;85011;-50
2022/05/25 00:40:04;;;;;;;;;;;12.20;94.10;;;;;;10455628;28;84366;-49
2022/05/25 00:45:06;;;;;;;;;;;12.10;92.30;;;;;;10492787;27;84085;-49
2022/05/25 00:50:08;;;;;;;;;;;12.00;99.90;;;;;;10479889;27;84276;-53
2022/05/25 00:55:10;;;;;;;;;;;12.10;99.90;;;;;;10497935;27;84328;-52
2022/05/25 01:00:12;;;;;;;;;;;12.00;99.90;;;;;;10470585;27;86008;-50
2022/05/25 01:05:14;;;;;;;;;;;12.00;99.90;;;;;;10455207;28;86390;-52
2022/05/25 01:10:33;;;;;;;;;;;12.00;99.90;;;;;;10477813;27;84897;-51
2022/05/25 01:15:59;;;;;;;;;;;11.90;99.90;;;;;;10497086;27;84318;-50
2022/05/25 01:21:18;;;;;;;;;;;11.80;99.90;;;;;;10463591;27;84926;-50
2022/05/25 01:26:35;;;;;;;;;;;11.90;99.90;;;;;;10453654;28;84068;-51
2022/05/25 01:31:41;;;;;;;;;;;11.90;99.90;;;;;;10488730;27;84494;-49
2022/05/25 01:36:47;;;;;;;;;;;11.70;99.90;;;;;;10492541;27;84857;-51
2022/05/25 01:41:56;;;;;;;;;;;11.60;99.90;;;;;;10495074;27;86760;-53
2022/05/25 01:47:01;;;;;;;;;;;11.50;99.90;;;;;;10456791;27;84903;-50
2022/05/25 01:52:04;;;;;;;;;;;11.50;99.90;;;;;;10452254;28;84800;-55
2022/05/25 01:57:11;;;;;;;;;;;11.50;99.90;;;;;;10491485;27;85054;-53
2022/05/25 02:07:40;;;;;;;;;;;11.40;99.90;;;;;;10453224;27;84678;-54
2022/05/25 02:12:48;;;;;;;;;;;11.40;99.90;;;;;;10452816;27;84136;-51
2022/05/25 02:17:51;;;;;;;;;;;11.30;99.90;;;;;;10494916;27;85000;-53
2022/05/25 02:22:54;;;;;;;;;;;11.30;99.90;;;;;;10492282;27;84958;-50
2022/05/25 02:27:59;;;;;;;;;;;11.20;99.90;;;;;;10451795;27;84818;-51
2022/05/25 02:33:05;;;;;;;;;;;11.20;99.90;;;;;;10454407;27;84733;-52
2022/05/25 02:38:06;;;;;;;;;;;11.10;99.90;;;;;;10494401;27;84919;-52
2022/05/25 02:43:07;;;;;;;;;;;11.00;99.90;;;;;;10459664;27;84664;-50
2022/05/25 02:48:08;;;;;;;;;;;10.90;99.90;;;;;;10492994;27;84902;-50
2022/05/25 02:53:11;;;;;;;;;;;11.00;99.90;;;;;;10477142;27;84623;-54
2022/05/25 02:58:12;;;;;;;;;;;10.90;99.90;;;;;;10448674;27;84900;-50
2022/05/25 03:03:12;;;;;;;;;;;10.90;99.90;;;;;;10454659;27;84069;-50
2022/05/25 03:08:13;;;;;;;;;;;11.00;99.90;;;;;;10492683;27;84309;-55
2022/05/25 03:13:14;;;;;;;;;;;11.00;99.90;;;;;;10487850;27;84097;-54
2022/05/25 03:18:14;;;;;;;;;;;10.90;99.90;;;;;;10450426;28;85108;-50
2022/05/25 03:23:17;;;;;;;;;;;10.90;99.90;;;;;;10449176;27;84958;-50
2022/05/25 03:28:17;;;;;;;;;;;10.90;99.90;;;;;;10449563;28;85354;-49
2022/05/25 03:33:18;;;;;;;;;;;10.80;99.90;;;;;;10456073;27;84396;-49
2022/05/25 03:38:18;;;;;;;;;;;10.70;99.90;;;;;;10450002;28;84364;-50
2022/05/25 03:43:19;;;;;;;;;;;10.70;99.90;;;;;;10458047;27;85203;-53
2022/05/25 03:48:20;;;;;;;;;;;10.70;99.90;;;;;;10499337;27;84891;-51
2022/05/25 03:53:20;;;;;;;;;;;10.70;99.90;;;;;;10493913;27;84933;-49
2022/05/25 03:58:21;;;;;;;;;;;10.70;99.90;;;;;;10455232;28;85249;-49
2022/05/25 04:03:22;;;;;;;;;;;10.70;99.90;;;;;;10463368;27;84189;-48
2022/05/25 04:08:22;;;;;;;;;;;10.80;99.90;;;;;;10499513;27;85178;-53
2022/05/25 04:13:25;;;;;;;;;;;10.90;99.90;;;;;;10493243;27;86662;-53
2022/05/25 04:18:26;;;;;;;;;;;11.00;99.90;;;;;;10488566;27;84960;-52
2022/05/25 04:23:27;;;;;;;;;;;11.10;99.90;;;;;;10493123;27;85000;-49
2022/05/25 04:28:28;;;;;;;;;;;11.10;99.90;;;;;;10446727;27;86596;-49
2022/05/25 04:33:30;;;;;;;;;;;11.40;99.90;;;;;;10464550;27;84235;-49
2022/05/25 04:38:31;;;;;;;;;;;11.40;99.90;;;;;;10455509;28;84092;-49
2022/05/25 04:43:32;;;;;;;;;;;11.50;99.90;;;;;;10455837;27;84937;-50
2022/05/25 04:48:32;;;;;;;;;;;11.50;99.90;;;;;;10472297;27;84968;-53
2022/05/25 04:53:33;;;;;;;;;;;11.60;99.90;;;;;;10467586;27;84793;-52
2022/05/25 04:58:36;;;;;;;;;;;11.60;99.90;;;;;;10497752;27;84185;-50
2022/05/25 05:03:37;;;;;;;;;;;11.70;99.90;;;;;;10476576;27;84332;-49
2022/05/25 05:08:38;;;;;;;;;;;11.70;99.90;;;;;;10491207;22;84984;-57
2022/05/25 05:13:39;;;;;;;;;;;11.80;99.90;;;;;;10487418;27;84217;-53
2022/05/25 05:18:40;;;;;;;;;;;12.00;99.90;;;;;;10486690;27;85033;-50
2022/05/25 05:23:59;;;;;;;;;;;12.10;99.90;;;;;;10452941;28;84184;-56
2022/05/25 05:29:00;;;;;;;;;;;12.30;99.90;;;;;;10443879;27;84669;-54
2022/05/25 05:34:00;;;;;;;;;;;12.40;99.90;;;;;;10448721;27;87222;-58
2022/05/25 05:39:03;;;;;;;;;;;12.50;99.90;;;;;;10440136;27;84250;-54
2022/05/25 05:44:04;;;;;;;;;;;12.70;99.90;;;;;;10441833;28;84976;-58
2022/05/25 05:49:05;;;;;;;;;;;12.90;99.90;;;;;;10436533;27;84814;-55
2022/05/25 05:54:06;;;;;;;;;;;12.90;93.50;;;;;;10462162;27;84181;-58
2022/05/25 05:59:06;;;;;;;;;;;13.00;82.80;;;;;;10457202;27;84968;-52
2022/05/25 06:04:08;;;;;;;;;;;13.30;43.90;;;;;;10451185;27;87087;-53
2022/05/25 06:09:09;;;;;;;;;;;13.60;1.00;;;;;;10409482;28;85279;-52
2022/05/25 06:14:10;;;;;;;;;;;13.70;1.00;;;;;;10411708;28;87171;-52
2022/05/25 06:19:26;;;;;;;;;;;13.90;1.00;;;;;;10410560;28;84827;-51
2022/05/25 06:24:27;;;;;;;;;;;14.00;1.00;;;;;;10408663;28;86798;-53
2022/05/25 06:29:28;;;;;;;;;;;14.20;1.00;;;;;;10408629;28;86083;-55
2022/05/25 06:34:28;;;;;;;;;;;14.40;1.00;;;;;;10410803;28;84073;-56
2022/05/25 06:39:33;;;;;;;;;;;14.60;1.00;;;;;;10408572;28;85008;-52
2022/05/25 06:44:33;;;;;;;;;;;14.90;1.00;;;;;;10409910;28;84156;-55
2022/05/25 06:49:34;;;;;;;;;;;15.00;1.00;;;;;;10407309;28;85977;-51
2022/05/25 06:54:35;;;;;;;;;;;15.00;1.00;;;;;;10409993;28;84099;-57
2022/05/25 06:59:36;;;;;;;;;;;15.20;1.00;;;;;;10408400;28;84159;-54
2022/05/25 07:04:37;;;;;;;;;;;15.50;1.00;;;;;;10407713;28;87164;-51
2022/05/25 07:09:39;;;;;;;;;;;15.70;1.00;;;;;;10408640;28;84874;-52
2022/05/25 07:14:39;;;;;;;;;;;16.00;1.00;;;;;;10409270;28;84445;-55
2022/05/25 07:19:40;;;;;;;;;;;16.00;1.00;;;;;;10407832;28;84854;-55
2022/05/25 07:24:40;;;;;;;;;;;16.30;1.00;;;;;;10408833;28;84134;-55
2022/05/25 07:29:41;;;;;;;;;;;16.70;1.00;;;;;;10408893;28;84025;-54
2022/05/25 07:34:54;;;;;;;;;;;17.10;1.00;;;;;;10408147;28;84176;-52
2022/05/25 07:39:58;;;;;;;;;;;17.20;1.00;;;;;;10406430;28;84387;-53
2022/05/25 07:44:59;;;;;;;;;;;18.00;99.90;;;;;;10408861;28;84078;-54
2022/05/25 07:50:00;;;;;;;;;;;18.60;1.00;;;;;;10405850;28;85217;-55
2022/05/25 07:55:02;;;;;;;;;;;19.30;1.00;;;;;;10408811;28;84807;-50
2022/05/25 08:00:03;;;;;;;;;;;19.90;1.00;;;;;;10407808;28;84951;-56
2022/05/25 08:10:35;;;;;;;;;;;20.00;1.00;;;;;;10407737;28;84861;-53
2022/05/25 08:15:42;;;;;;;;;;;19.90;99.90;;;;;;10409184;28;85364;-54
2022/05/25 08:20:43;;;;;;;;;;;20.10;1.00;;;;;;10408901;28;84987;-55
2022/05/25 08:25:44;;;;;;;;;;;20.70;99.90;;;;;;10407779;28;84171;-54
2022/05/25 08:30:45;;;;;;;;;;;20.70;99.90;;;;;;10411498;28;84077;-51
2022/05/25 08:35:46;;;;;;;;;;;21.20;99.90;;;;;;10415485;28;84961;-50
2022/05/25 08:40:48;;;;;;;;;;;21.20;1.00;;;;;;10413871;28;84630;-55
2022/05/25 08:45:50;;;;;;;;;;;21.70;1.00;;;;;;10413520;28;85993;-52
2022/05/25 08:50:53;;;;;;;;;;;22.50;1.00;;;;;;10413195;28;84041;-54
2022/05/25 08:55:57;;;;;;;;;;;22.20;1.00;;;;;;10413720;28;84133;-51
2022/05/25 09:00:58;;;;;;;;;;;22.80;1.00;;;;;;10413280;28;84768;-54
2022/05/25 09:06:05;;;;;;;;;;;22.90;99.90;;;;;;10414022;28;84720;-55
2022/05/25 09:11:17;;;;;;;;;;;23.40;99.90;;;;;;10412449;28;84768;-53
2022/05/25 09:16:19;;;;;;;;;;;22.80;99.90;;;;;;10415492;28;85196;-50
2022/05/25 09:21:23;;;;;;;;;;;22.30;99.90;;;;;;10412385;28;84909;-54
2022/05/25 09:26:25;;;;;;;;;;;23.10;99.90;;;;;;10413314;28;84289;-54
2022/05/25 09:31:31;;;;;;;;;;;22.80;99.90;;;;;;10413274;28;84073;-53
2022/05/25 09:36:38;;;;;;;;;;;22.40;1.00;;;;;;10413565;28;84117;-53
2022/05/25 09:41:40;;;;;;;;;;;22.80;1.00;;;;;;10413105;28;85059;-52
2022/05/25 09:46:43;;;;;;;;;;;23.80;99.90;;;;;;10412320;28;84026;-56
2022/05/25 09:51:45;;;;;;;;;;;24.00;99.90;;;;;;10412099;28;84079;-52
2022/05/25 09:56:50;;;;;;;;;;;24.20;99.90;;;;;;10411467;28;85992;-54
2022/05/25 10:01:52;;;;;;;;;;;25.40;38.30;;;;;;10412062;28;84037;-53
2022/05/25 10:06:53;;;;;;;;;;;25.40;1.00;;;;;;10412433;28;84833;-53
2022/05/25 10:11:58;;;;;;;;;;;24.90;1.00;;;;;;10411971;28;84608;-53
2022/05/25 10:17:09;;;;;;;;;;;24.40;1.00;;;;;;10412625;28;84074;-55
2022/05/25 10:22:25;;;;;;;;;;;24.90;1.00;;;;;;10411641;28;84068;-55
2022/05/25 10:27:32;;;;;;;;;;;25.50;1.00;;;;;;10412383;28;85173;-52
2022/05/25 10:37:52;;;;;;;;;;;26.70;1.00;;;;;;10412171;28;84533;-54
2022/05/25 10:42:57;;;;;;;;;;;25.30;1.00;;;;;;10411144;28;85104;-56
2022/05/25 10:48:38;;;;;;;;;;;26.10;1.00;;;;;;10408661;28;105683;-51
2022/05/25 10:59:23;;;;;;;;;;;25.90;1.00;;;;;;10409928;28;84520;-50
2022/05/25 11:04:37;;;;;;;;;;;25.50;1.00;;;;;;10409449;28;84121;-54
2022/05/25 11:09:41;;;;;;;;;;;24.50;1.00;;;;;;10474006;22;84337;-54
2022/05/25 11:14:44;;;;;;;;;;;24.30;1.00;;;;;;10536803;27;84065;-51
2022/05/25 11:20:04;;;;;;;;;;;24.30;1.00;;;;;;10536790;27;84285;-53
2022/05/25 11:25:10;;;;;;;;;;;23.80;1.00;;;;;;10529742;27;84996;-48
2022/05/25 11:30:29;;;;;;;;;;;23.20;1.00;;;;;;10528728;27;84871;-51
2022/05/25 11:35:49;;;;;;;;;;;23.20;1.00;;;;;;10537059;27;84939;-51
2022/05/25 11:41:15;;;;;;;;;;;23.30;1.00;;;;;;10527123;27;84849;-46
2022/05/25 11:46:24;;;;;;;;;;;22.70;1.00;;;;;;10523702;27;84173;-49
2022/05/25 11:51:24;;;;;;;;;;;22.90;1.00;;;;;;10535132;27;85080;-49
2022/05/25 11:56:32;;;;;;;;;;;23.60;1.00;;;;;;10533187;27;85880;-52
2022/05/25 12:01:45;;;;;;;;;;;22.70;1.00;;;;;;10529587;27;84099;-54
2022/05/25 12:06:50;;;;;;;;;;;22.10;1.00;;;;;;10533213;27;84998;-54
2022/05/25 12:11:54;;;;;;;;;;;23.60;99.90;;;;;;10528184;27;84934;-52
2022/05/25 12:16:57;;;;;;;;;;;24.80;99.90;;;;;;10521670;27;84283;-53
2022/05/25 12:22:02;;;;;;;;;;;26.00;1.00;;;;;;10518526;27;84132;-53
2022/05/25 12:27:04;;;;;;;;;;;26.80;99.90;;;;;;10519364;27;84118;-56
2022/05/25 12:32:06;;;;;;;;;;;26.70;99.90;;;;;;10521577;27;84929;-52
2022/05/25 12:37:08;;;;;;;;;;;26.40;99.90;;;;;;10521889;27;84727;-54
2022/05/25 12:42:24;;;;;;;;;;;24.80;99.90;;;;;;10534035;27;84095;-55
2022/05/25 12:52:46;;;;;;;;;;;24.30;99.90;;;;;;10522860;27;84376;-56
2022/05/25 12:57:50;;;;;;;;;;;22.70;99.90;;;;;;10521082;27;84092;-55
2022/05/25 13:02:50;;;;;;;;;;;23.20;1.00;;;;;;10538828;27;85753;-54
2022/05/25 13:07:52;;;;;;;;;;;23.90;1.00;;;;;;10541212;27;85302;-55
2022/05/25 13:12:56;;;;;;;;;;;24.30;1.00;;;;;;10539149;27;84956;-56
2022/05/25 13:17:57;;;;;;;;;;;25.00;1.00;;;;;;10540258;27;84156;-55
2022/05/25 13:22:59;;;;;;;;;;;25.20;99.90;;;;;;10541206;27;83994;-52
2022/05/25 13:28:18;;;;;;;;;;;24.30;99.90;;;;;;10541308;27;83960;-54
2022/05/25 13:33:24;;;;;;;;;;;23.10;99.90;;;;;;10542675;27;85399;-54
2022/05/25 13:38:28;;;;;;;;;;;22.40;99.90;;;;;;10539419;27;85965;-51
2022/05/25 13:43:31;;;;;;;;;;;22.10;99.90;;;;;;10540764;27;85069;-53
2022/05/25 13:48:32;;;;;;;;;;;22.80;99.90;;;;;;10539927;27;84582;-51
2022/05/25 13:53:36;;;;;;;;;;;24.00;99.90;;;;;;10540322;27;84773;-53
2022/05/25 13:58:42;;;;;;;;;;;24.40;99.90;;;;;;10540003;27;84621;-53
2022/05/25 14:03:47;;;;;;;;;;;24.40;99.90;;;;;;10540475;27;85838;-53
2022/05/25 14:14:45;;;;;;;;;;;23.90;99.90;;;;;;10540312;27;84034;-56
2022/05/25 14:19:47;;;;;;;;;;;23.10;99.90;;;;;;10509890;27;84254;-53
2022/05/25 14:24:48;;;;;;;;;;;21.90;95.90;;;;;;10540290;27;84198;-53
2022/05/25 14:29:49;;;;;;;;;;;22.10;99.90;;;;;;10537115;27;84084;-52
2022/05/25 14:34:53;;;;;;;;;;;22.50;99.90;;;;;;10538634;27;84376;-55
2022/05/25 14:39:58;;;;;;;;;;;21.50;99.90;;;;;;10537922;27;85000;-53
2022/05/25 14:45:04;;;;;;;;;;;21.20;99.90;;;;;;10538271;27;84298;-51
2022/05/25 14:50:23;;;;;;;;;;;20.60;99.90;;;;;;10537400;27;84219;-51
2022/05/25 14:55:36;;;;;;;;;;;20.40;99.90;;;;;;10537153;27;85053;-54
2022/05/25 15:00:37;;;;;;;;;;;20.60;99.90;;;;;;10537228;27;84066;-53
2022/05/25 15:05:38;;;;;;;;;;;20.90;99.90;;;;;;10537902;27;84170;-56
2022/05/25 15:10:39;;;;;;;;;;;20.90;99.90;;;;;;10536695;27;85019;-56
2022/05/25 15:21:11;;;;;;;;;;;20.90;99.90;;;;;;10523278;27;84226;-52
2022/05/25 15:26:19;;;;;;;;;;;21.00;99.90;;;;;;10525439;27;84866;-53
2022/05/25 15:31:19;;;;;;;;;;;20.60;50.20;;;;;;10530823;27;84913;-54
2022/05/25 15:36:22;;;;;;;;;;;20.60;99.90;;;;;;10529337;27;85113;-54
2022/05/25 15:41:23;;;;;;;;;;;20.70;66.00;;;;;;10528000;27;86535;-52
2022/05/25 15:46:24;;;;;;;;;;;20.60;1.00;;;;;;10527185;27;84902;-52
2022/05/25 15:51:26;;;;;;;;;;;20.70;1.00;;;;;;10526617;27;84950;-55
2022/05/25 15:56:27;;;;;;;;;;;20.60;1.00;;;;;;10529190;27;84850;-51
2022/05/25 16:01:28;;;;;;;;;;;20.30;1.00;;;;;;10526477;27;84306;-50
2022/05/25 16:06:29;;;;;;;;;;;20.10;94.70;;;;;;10532254;27;85033;-54
2022/05/25 16:11:33;;;;;;;;;;;20.10;14.60;;;;;;10542116;27;87019;-51
2022/05/25 16:16:33;;;;;;;;;;;20.20;60.10;;;;;;10545259;27;84458;-48
2022/05/25 16:21:34;;;;;;;;;;;20.30;99.90;;;;;;10541129;27;84321;-51
2022/05/25 16:26:35;;;;;;;;;;;20.30;99.90;;;;;;10524683;27;84337;-52
2022/05/25 16:31:37;;;;;;;;;;;20.20;99.90;;;;;;10526084;27;84754;-54
2022/05/25 16:36:40;;;;;;;;;;;20.20;99.90;;;;;;10531731;27;84842;-51
2022/05/25 16:41:42;;;;;;;;;;;20.10;99.90;;;;;;10520790;27;84864;-51
2022/05/25 16:46:43;;;;;;;;;;;20.20;99.90;;;;;;10532379;27;84898;-55
2022/05/25 16:51:43;;;;;;;;;;;20.10;99.90;;;;;;10529094;27;84964;-53
2022/05/25 16:56:44;;;;;;;;;;;20.20;99.90;;;;;;10515755;27;84251;-53
2022/05/25 17:01:45;;;;;;;;;;;19.90;99.90;;;;;;10515423;27;84728;-51
2022/05/25 17:06:45;;;;;;;;;;;19.80;99.90;;;;;;10511649;27;84121;-50
2022/05/25 17:11:47;;;;;;;;;;;19.60;99.90;;;;;;10519096;27;84138;-53
2022/05/25 17:16:47;;;;;;;;;;;19.40;1.00;;;;;;10503149;22;84309;-51
2022/05/25 17:21:48;;;;;;;;;;;19.10;1.00;;;;;;10489187;27;84142;-52
2022/05/25 17:26:49;;;;;;;;;;;19.10;1.00;;;;;;10454092;27;85332;-50
2022/05/25 17:31:50;;;;;;;;;;;19.10;99.90;;;;;;10451416;28;85750;-53
2022/05/25 17:42:10;;;;;;;;;;;19.20;97.80;;;;;;10453999;27;85039;-51
2022/05/25 17:47:10;;;;;;;;;;;19.10;99.90;;;;;;10453475;28;84855;-55
2022/05/25 17:52:12;;;;;;;;;;;18.90;99.90;;;;;;10447187;27;84877;-54
2022/05/25 17:57:12;;;;;;;;;;;18.80;1.00;;;;;;10452063;27;86803;-61
2022/05/25 18:02:13;;;;;;;;;;;18.60;99.90;;;;;;10444691;27;84890;-60
2022/05/25 18:07:15;;;;;;;;;;;18.70;99.90;;;;;;10463268;27;84124;-55
2022/05/25 18:12:16;;;;;;;;;;;18.60;99.90;;;;;;10469236;27;84307;-61
2022/05/25 18:17:18;;;;;;;;;;;18.60;99.90;;;;;;10468954;27;86252;-61
2022/05/25 18:22:19;;;;;;;;;;;18.50;1.00;;;;;;10455330;28;84219;-58
2022/05/25 18:27:20;;;;;;;;;;;18.60;1.00;;;;;;10454414;28;84958;-58
2022/05/25 18:32:20;;;;;;;;;;;18.60;1.00;;;;;;10454292;28;84881;-63
2022/05/25 18:37:21;;;;;;;;;;;18.50;1.00;;;;;;10450108;27;84941;-62
2022/05/25 18:42:21;;;;;;;;;;;18.50;1.00;;;;;;10450694;28;84283;-62
2022/05/25 18:47:22;;;;;;;;;;;18.40;1.00;;;;;;10453194;27;84822;-62
2022/05/25 18:52:24;;;;;;;;;;;18.30;1.00;;;;;;10454414;27;84016;-60
2022/05/25 18:57:25;;;;;;;;;;;18.30;99.90;;;;;;10453826;27;84260;-61
2022/05/25 19:02:26;;;;;;;;;;;18.20;1.00;;;;;;10452740;28;84070;-59
2022/05/25 19:07:26;;;;;;;;;;;18.20;1.00;;;;;;10450976;27;84006;-63
2022/05/25 19:12:27;;;;;;;;;;;18.10;1.00;;;;;;10452524;27;84151;-62
2022/05/25 19:17:28;;;;;;;;;;;18.00;1.00;;;;;;10452893;27;85203;-60
2022/05/25 19:22:31;;;;;;;;;;;17.90;1.00;;;;;;10468715;27;86726;-61
2022/05/25 19:27:32;;;;;;;;;;;17.90;89.00;;;;;;10452548;27;84078;-63
2022/05/25 19:32:33;;;;;;;;;;;17.90;96.20;;;;;;10453101;27;84715;-63
2022/05/25 19:37:34;;;;;;;;;;;17.80;1.00;;;;;;10451460;28;84753;-63
2022/05/25 19:42:40;;;;;;;;;;;17.70;1.00;;;;;;10448313;28;87509;-64
2022/05/25 19:47:41;;;;;;;;;;;17.60;1.00;;;;;;10450541;27;84240;-65
2022/05/25 19:52:41;;;;;;;;;;;17.60;99.90;;;;;;10451068;28;84947;-64
2022/05/25 19:57:42;;;;;;;;;;;17.60;1.00;;;;;;10459062;27;86716;-50
2022/05/25 20:02:43;;;;;;;;;;;17.60;1.00;;;;;;10453975;27;84499;-55
2022/05/25 20:07:44;;;;;;;;;;;17.60;99.90;;;;;;10470865;27;84819;-53
2022/05/25 20:12:44;;;;;;;;;;;17.50;1.00;;;;;;10475241;27;84870;-55
2022/05/25 20:17:45;;;;;;;;;;;17.50;82.60;;;;;;10456598;27;85040;-54
2022/05/25 20:22:45;;;;;;;;;;;17.30;99.90;;;;;;10474587;27;84890;-52
2022/05/25 20:27:46;;;;;;;;;;;17.20;99.90;;;;;;10466580;27;86059;-51
2022/05/25 20:32:47;;;;;;;;;;;17.40;1.00;;;;;;10454945;27;84880;-54
2022/05/25 20:37:48;;;;;;;;;;;17.20;1.00;;;;;;10455043;27;84154;-51
2022/05/25 20:42:49;;;;;;;;;;;17.20;78.60;;;;;;10454626;28;85051;-55
2022/05/25 20:47:51;;;;;;;;;;;17.10;99.90;;;;;;10456026;27;84221;-57
2022/05/25 20:52:52;;;;;;;;;;;17.10;1.00;;;;;;10455736;27;84015;-53
2022/05/25 20:57:53;;;;;;;;;;;17.10;1.00;;;;;;10454344;28;84887;-49
2022/05/25 21:02:55;;;;;;;;;;;17.10;1.00;;;;;;10454997;28;84929;-51
2022/05/25 21:07:56;;;;;;;;;;;17.00;1.00;;;;;;10452169;28;86112;-49
2022/05/25 21:12:57;;;;;;;;;;;17.10;1.00;;;;;;10454839;28;84719;-49
2022/05/25 21:17:58;;;;;;;;;;;16.90;1.00;;;;;;10452521;28;84138;-51
2022/05/25 21:23:02;;;;;;;;;;;16.80;1.00;;;;;;10451967;28;84953;-53
2022/05/25 21:28:03;;;;;;;;;;;16.70;99.90;;;;;;10448998;28;85041;-51
2022/05/25 21:33:04;;;;;;;;;;;16.70;1.00;;;;;;10451279;27;84966;-52
2022/05/25 21:38:04;;;;;;;;;;;16.70;1.00;;;;;;10450854;27;84959;-53
2022/05/25 21:43:05;;;;;;;;;;;16.70;1.00;;;;;;10450545;27;84968;-53
2022/05/25 21:53:25;;;;;;;;;;;16.40;99.90;;;;;;10448464;27;86144;-53
2022/05/25 21:58:25;;;;;;;;;;;16.30;99.90;;;;;;10449358;28;84637;-50
2022/05/25 22:03:26;;;;;;;;;;;16.20;99.90;;;;;;10449593;28;84248;-50
2022/05/25 22:08:27;;;;;;;;;;;16.20;1.00;;;;;;10449183;28;84469;-50
2022/05/25 22:13:29;;;;;;;;;;;16.00;1.00;;;;;;10444654;27;84791;-54
2022/05/25 22:18:30;;;;;;;;;;;16.00;1.00;;;;;;10446715;28;86297;-45
2022/05/25 22:23:30;;;;;;;;;;;15.90;1.00;;;;;;10449168;28;85032;-52
2022/05/25 22:28:31;;;;;;;;;;;15.90;1.00;;;;;;10451249;28;84861;-50
2022/05/25 22:33:35;;;;;;;;;;;15.90;1.00;;;;;;10448697;28;85337;-50
2022/05/25 22:38:35;;;;;;;;;;;15.90;1.00;;;;;;10453380;27;84778;-49
2022/05/25 22:43:36;;;;;;;;;;;15.90;1.00;;;;;;10452637;28;84139;-49
2022/05/25 22:48:36;;;;;;;;;;;15.90;1.00;;;;;;10453115;27;84050;-47
2022/05/25 22:53:37;;;;;;;;;;;15.90;1.00;;;;;;10435033;28;84233;-48
2022/05/25 22:58:38;;;;;;;;;;;16.00;1.00;;;;;;10454504;28;84337;-48
2022/05/25 23:03:39;;;;;;;;;;;16.00;1.00;;;;;;10448952;28;86887;-52
2022/05/25 23:08:40;;;;;;;;;;;16.00;1.00;;;;;;10452205;28;86171;-47
2022/05/25 23:13:41;;;;;;;;;;;16.00;1.00;;;;;;10451227;28;84086;-46
2022/05/25 23:18:41;;;;;;;;;;;15.90;1.00;;;;;;10450408;28;84304;-53
2022/05/25 23:23:42;;;;;;;;;;;15.90;1.00;;;;;;10451014;27;84283;-51
2022/05/25 23:34:03;;;;;;;;;;;15.90;1.00;;;;;;10440352;27;84736;-51
2022/05/25 23:39:04;;;;;;;;;;;15.90;1.00;;;;;;10448889;28;85029;-47
2022/05/25 23:44:05;;;;;;;;;;;16.00;1.00;;;;;;10449395;28;84011;-51
2022/05/25 23:49:05;;;;;;;;;;;16.00;1.00;;;;;;10450156;28;84805;-48
2022/05/25 23:54:06;;;;;;;;;;;15.90;1.00;;;;;;10449257;28;85194;-52
2022/05/25 23:59:07;;;;;;;;;;;16.00;1.00;;;;;;10451946;27;84733;-48
